sensor_id;sensor_type;location;lat;lon;timestamp;pressure;altitude;pressure_sealevel;temperature;humidity
6136;BME280;24008;42.664;23.372;2023-05-29T00:00:59;94488.28;;;12.76;100.00
6136;BME280;24008;42.664;23.372;2023-05-29T00:03:26;94529.00;;;12.95;100.00
6136;BME280;24008;42.664;23.372;2023-05-29T00:05:53;94395.16;;;12.11;100.00
6136;BME280;24008;42.664;23.372;2023-05-29T00:08:21;94526.44;;;12.95;100.00
6136;BME280;24008;42.664;23.372;2023-05-29T00:10:48;94528.34;;;12.93;100.00
6136;BME280;24008;42.664;23.372;2023-05-29T00:13:14;94527.56;;;12.93;100.00
6136;BME280;24008;42.664;23.372;2023-05-29T00:15:41;94529.97;;;12.94;100.00
6136;BME280;24008;42.664;23.372;2023-05-29T00:18:08;94544.25;;;12.97;100.00
6136;BME280;24008;42.664;23.372;2023-05-29T00:20:35;94534.78;;;12.97;100.00
6136;BME280;24008;42.664;23.372;2023-05-29T00:23:04;94513.44;;;12.81;100.00
6136;BME280;24008;42.664;23.372;2023-05-29T00:25:32;94466.81;;;12.53;100.00
6136;BME280;24008;42.664;23.372;2023-05-29T00:27:59;94538.00;;;12.91;100.00
6136;BME280;24008;42.664;23.372;2023-05-29T00:30:26;94528.84;;;12.89;100.00
6136;BME280;24008;42.664;23.372;2023-05-29T00:32:52;94530.63;;;12.88;100.00
6136;BME280;24008;42.664;23.372;2023-05-29T00:35:19;94499.81;;;12.72;100.00
6136;BME280;24008;42.664;23.372;2023-05-29T00:37:46;94527.06;;;12.81;100.00
6136;BME280;24008;42.664;23.372;2023-05-29T00:40:13;94486.16;;;12.47;100.00
6136;BME280;24008;42.664;23.372;2023-05-29T00:42:41;94525.78;;;12.69;100.00
6136;BME280;24008;42.664;23.372;2023-05-29T00:45:08;94534.25;;;12.61;100.00
6136;BME280;24008;42.664;23.372;2023-05-29T00:47:35;94528.00;;;12.56;100.00
6136;BME280;24008;42.664;23.372;2023-05-29T00:50:02;94494.16;;;12.36;100.00
6136;BME280;24008;42.664;23.372;2023-05-29T00:52:29;94511.63;;;12.41;100.00
6136;BME280;24008;42.664;23.372;2023-05-29T00:54:56;94526.38;;;12.47;100.00
6136;BME280;24008;42.664;23.372;2023-05-29T00:57:26;94400.63;;;11.66;100.00
6136;BME280;24008;42.664;23.372;2023-05-29T00:59:55;94436.72;;;11.80;100.00
6136;BME280;24008;42.664;23.372;2023-05-29T01:02:22;94476.31;;;12.02;100.00
6136;BME280;24008;42.664;23.372;2023-05-29T01:04:50;94515.16;;;12.32;100.00
6136;BME280;24008;42.664;23.372;2023-05-29T01:07:20;94522.19;;;12.30;100.00
6136;BME280;24008;42.664;23.372;2023-05-29T01:09:46;94326.38;;;11.07;100.00
6136;BME280;24008;42.664;23.372;2023-05-29T01:12:25;94409.69;;;11.60;100.00
6136;BME280;24008;42.664;23.372;2023-05-29T01:15:04;94518.03;;;12.29;100.00
6136;BME280;24008;42.664;23.372;2023-05-29T01:17:43;94414.22;;;11.66;100.00
6136;BME280;24008;42.664;23.372;2023-05-29T01:20:23;94504.53;;;12.18;100.00
6136;BME280;24008;42.664;23.372;2023-05-29T01:23:07;94529.53;;;12.33;100.00
6136;BME280;24008;42.664;23.372;2023-05-29T01:25:55;94421.59;;;11.69;100.00
6136;BME280;24008;42.664;23.372;2023-05-29T01:28:30;94525.41;;;12.32;100.00
6136;BME280;24008;42.664;23.372;2023-05-29T01:31:00;94501.31;;;12.16;100.00
6136;BME280;24008;42.664;23.372;2023-05-29T01:33:27;94522.84;;;12.32;100.00
6136;BME280;24008;42.664;23.372;2023-05-29T01:35:54;94522.34;;;12.28;100.00
6136;BME280;24008;42.664;23.372;2023-05-29T01:38:21;94445.66;;;11.76;100.00
6136;BME280;24008;42.664;23.372;2023-05-29T01:40:48;94494.59;;;12.07;100.00
6136;BME280;24008;42.664;23.372;2023-05-29T01:43:15;94518.97;;;12.19;100.00
6136;BME280;24008;42.664;23.372;2023-05-29T01:45:44;94499.72;;;12.07;100.00
6136;BME280;24008;42.664;23.372;2023-05-29T01:48:11;94514.44;;;12.13;100.00
6136;BME280;24008;42.664;23.372;2023-05-29T01:50:38;94496.59;;;11.96;100.00
6136;BME280;24008;42.664;23.372;2023-05-29T01:53:05;94518.75;;;12.05;100.00
6136;BME280;24008;42.664;23.372;2023-05-29T01:55:32;94523.50;;;12.00;100.00
6136;BME280;24008;42.664;23.372;2023-05-29T01:57:59;94466.53;;;11.64;100.00
6136;BME280;24008;42.664;23.372;2023-05-29T02:00:26;94506.97;;;11.86;100.00
6136;BME280;24008;42.664;23.372;2023-05-29T02:02:54;94509.22;;;11.81;100.00
6136;BME280;24008;42.664;23.372;2023-05-29T02:05:21;94511.13;;;11.79;100.00
6136;BME280;24008;42.664;23.372;2023-05-29T02:07:48;94506.13;;;11.77;100.00
6136;BME280;24008;42.664;23.372;2023-05-29T02:10:14;94513.97;;;11.76;100.00
6136;BME280;24008;42.664;23.372;2023-05-29T02:12:41;94460.47;;;11.39;100.00
6136;BME280;24008;42.664;23.372;2023-05-29T02:15:08;94507.69;;;11.70;100.00
6136;BME280;24008;42.664;23.372;2023-05-29T02:17:36;94399.97;;;10.96;100.00
6136;BME280;24008;42.664;23.372;2023-05-29T02:20:05;94425.63;;;11.12;100.00
6136;BME280;24008;42.664;23.372;2023-05-29T02:22:32;94427.56;;;11.10;100.00
6136;BME280;24008;42.664;23.372;2023-05-29T02:24:59;94494.44;;;11.49;100.00
6136;BME280;24008;42.664;23.372;2023-05-29T02:27:26;94508.44;;;11.63;100.00
6136;BME280;24008;42.664;23.372;2023-05-29T02:29:52;94508.78;;;11.68;100.00
6136;BME280;24008;42.664;23.372;2023-05-29T02:32:19;94481.50;;;11.50;100.00
6136;BME280;24008;42.664;23.372;2023-05-29T02:34:47;94512.97;;;11.69;100.00
6136;BME280;24008;42.664;23.372;2023-05-29T02:37:16;94514.38;;;11.71;100.00
6136;BME280;24008;42.664;23.372;2023-05-29T02:39:43;94421.81;;;11.16;100.00
6136;BME280;24008;42.664;23.372;2023-05-29T02:42:10;94510.47;;;11.77;100.00
6136;BME280;24008;42.664;23.372;2023-05-29T02:44:36;94517.03;;;11.79;100.00
6136;BME280;24008;42.664;23.372;2023-05-29T02:47:03;94474.47;;;11.52;100.00
6136;BME280;24008;42.664;23.372;2023-05-29T02:49:30;94515.13;;;11.81;100.00
6136;BME280;24008;42.664;23.372;2023-05-29T02:51:57;94492.13;;;11.64;100.00
6136;BME280;24008;42.664;23.372;2023-05-29T02:54:25;94487.81;;;11.64;100.00
6136;BME280;24008;42.664;23.372;2023-05-29T02:56:51;94511.94;;;11.87;100.00
6136;BME280;24008;42.664;23.372;2023-05-29T02:59:18;94513.25;;;11.92;100.00
6136;BME280;24008;42.664;23.372;2023-05-29T03:01:45;94512.75;;;11.96;100.00
6136;BME280;24008;42.664;23.372;2023-05-29T03:04:13;94520.81;;;12.01;100.00
6136;BME280;24008;42.664;23.372;2023-05-29T03:06:40;94463.50;;;11.68;100.00
6136;BME280;24008;42.664;23.372;2023-05-29T03:09:06;94529.63;;;12.07;100.00
6136;BME280;24008;42.664;23.372;2023-05-29T03:11:34;94523.72;;;12.14;100.00
6136;BME280;24008;42.664;23.372;2023-05-29T03:14:03;94518.97;;;12.19;100.00
6136;BME280;24008;42.664;23.372;2023-05-29T03:16:30;94521.53;;;12.27;100.00
6136;BME280;24008;42.664;23.372;2023-05-29T03:18:57;94517.72;;;12.32;100.00
6136;BME280;24008;42.664;23.372;2023-05-29T03:21:23;94527.63;;;12.35;100.00
6136;BME280;24008;42.664;23.372;2023-05-29T03:23:50;94509.22;;;12.31;100.00
6136;BME280;24008;42.664;23.372;2023-05-29T03:26:17;94466.41;;;12.15;100.00
6136;BME280;24008;42.664;23.372;2023-05-29T03:28:45;94508.44;;;12.47;100.00
6136;BME280;24008;42.664;23.372;2023-05-29T03:31:12;94482.78;;;12.31;100.00
6136;BME280;24008;42.664;23.372;2023-05-29T03:33:38;94504.59;;;12.51;100.00
6136;BME280;24008;42.664;23.372;2023-05-29T03:36:06;94526.25;;;12.73;100.00
6136;BME280;24008;42.664;23.372;2023-05-29T03:38:33;94507.66;;;12.54;100.00
6136;BME280;24008;42.664;23.372;2023-05-29T03:41:00;94516.97;;;12.63;100.00
6136;BME280;24008;42.664;23.372;2023-05-29T03:43:27;94552.41;;;12.84;100.00
6136;BME280;24008;42.664;23.372;2023-05-29T03:45:55;94547.63;;;12.89;100.00
6136;BME280;24008;42.664;23.372;2023-05-29T03:48:22;94514.91;;;12.75;100.00
6136;BME280;24008;42.664;23.372;2023-05-29T03:50:49;94547.59;;;13.06;100.00
6136;BME280;24008;42.664;23.372;2023-05-29T03:53:15;94533.66;;;13.00;100.00
6136;BME280;24008;42.664;23.372;2023-05-29T03:55:42;94531.75;;;13.02;100.00
6136;BME280;24008;42.664;23.372;2023-05-29T03:58:09;94496.78;;;12.85;100.00
6136;BME280;24008;42.664;23.372;2023-05-29T04:00:37;94553.56;;;13.22;100.00
6136;BME280;24008;42.664;23.372;2023-05-29T04:03:05;94549.72;;;13.26;100.00
6136;BME280;24008;42.664;23.372;2023-05-29T04:05:32;94558.84;;;13.29;100.00
6136;BME280;24008;42.664;23.372;2023-05-29T04:08:00;94558.38;;;13.42;100.00
6136;BME280;24008;42.664;23.372;2023-05-29T04:10:30;94528.38;;;13.34;100.00
6136;BME280;24008;42.664;23.372;2023-05-29T04:12:59;94569.41;;;13.75;100.00
6136;BME280;24008;42.664;23.372;2023-05-29T04:15:26;94573.22;;;13.95;100.00
6136;BME280;24008;42.664;23.372;2023-05-29T04:17:53;94560.97;;;14.05;100.00
6136;BME280;24008;42.664;23.372;2023-05-29T04:20:21;94573.06;;;14.35;100.00
6136;BME280;24008;42.664;23.372;2023-05-29T04:22:48;94576.56;;;14.51;100.00
6136;BME280;24008;42.664;23.372;2023-05-29T04:25:15;94523.44;;;14.27;100.00
6136;BME280;24008;42.664;23.372;2023-05-29T04:27:43;94577.22;;;14.75;100.00
6136;BME280;24008;42.664;23.372;2023-05-29T04:30:14;94568.94;;;14.88;100.00
6136;BME280;24008;42.664;23.372;2023-05-29T04:32:41;94576.63;;;14.96;100.00
6136;BME280;24008;42.664;23.372;2023-05-29T04:35:08;94555.63;;;14.85;100.00
6136;BME280;24008;42.664;23.372;2023-05-29T04:37:37;94577.53;;;15.03;99.52
6136;BME280;24008;42.664;23.372;2023-05-29T04:40:05;94577.47;;;15.11;98.52
6136;BME280;24008;42.664;23.372;2023-05-29T04:42:34;94582.50;;;15.28;97.55
6136;BME280;24008;42.664;23.372;2023-05-29T04:45:01;94583.91;;;15.53;96.82
6136;BME280;24008;42.664;23.372;2023-05-29T04:47:29;94583.19;;;15.82;94.58
6136;BME280;24008;42.664;23.372;2023-05-29T04:49:58;94539.56;;;15.80;93.12
6136;BME280;24008;42.664;23.372;2023-05-29T04:52:25;94586.84;;;16.32;90.63
6136;BME280;24008;42.664;23.372;2023-05-29T04:54:53;94586.38;;;16.57;89.76
6136;BME280;24008;42.664;23.372;2023-05-29T04:57:22;94586.78;;;17.12;88.17
6136;BME280;24008;42.664;23.372;2023-05-29T04:59:49;94593.66;;;17.47;86.18
6136;BME280;24008;42.664;23.372;2023-05-29T05:02:16;94600.69;;;17.75;83.83
6136;BME280;24008;42.664;23.372;2023-05-29T05:04:42;94603.19;;;17.68;81.05
6136;BME280;24008;42.664;23.372;2023-05-29T05:07:11;94579.59;;;17.50;80.30
6136;BME280;24008;42.664;23.372;2023-05-29T05:09:39;94591.63;;;17.64;79.98
6136;BME280;24008;42.664;23.372;2023-05-29T05:12:07;94600.31;;;18.12;79.83
6136;BME280;24008;42.664;23.372;2023-05-29T05:14:34;94622.72;;;19.22;77.26
6136;BME280;24008;42.664;23.372;2023-05-29T05:17:01;94580.91;;;20.04;73.19
6136;BME280;24008;42.664;23.372;2023-05-29T05:19:28;94557.03;;;20.46;71.20
6136;BME280;24008;42.664;23.372;2023-05-29T05:21:54;94589.34;;;21.02;66.43
6136;BME280;24008;42.664;23.372;2023-05-29T05:24:21;94620.53;;;21.02;66.63
6136;BME280;24008;42.664;23.372;2023-05-29T05:26:48;94592.81;;;20.38;67.12
6136;BME280;24008;42.664;23.372;2023-05-29T05:29:16;94601.25;;;20.13;69.14
6136;BME280;24008;42.664;23.372;2023-05-29T05:31:44;94432.00;;;18.81;69.56
6136;BME280;24008;42.664;23.372;2023-05-29T05:34:10;94588.44;;;19.33;69.67
6136;BME280;24008;42.664;23.372;2023-05-29T05:36:37;94611.97;;;19.44;70.41
6136;BME280;24008;42.664;23.372;2023-05-29T05:39:04;94609.25;;;19.53;71.79
6136;BME280;24008;42.664;23.372;2023-05-29T05:41:31;94604.22;;;20.10;69.27
6136;BME280;24008;42.664;23.372;2023-05-29T05:43:58;94599.25;;;20.02;67.94
6136;BME280;24008;42.664;23.372;2023-05-29T05:46:26;94567.75;;;19.59;67.72
6136;BME280;24008;42.664;23.372;2023-05-29T05:48:53;94592.81;;;20.18;67.85
6136;BME280;24008;42.664;23.372;2023-05-29T05:51:25;94605.16;;;20.49;65.46
6136;BME280;24008;42.664;23.372;2023-05-29T05:53:52;94534.63;;;19.81;65.25
6136;BME280;24008;42.664;23.372;2023-05-29T05:56:19;94594.88;;;19.83;66.16
6136;BME280;24008;42.664;23.372;2023-05-29T05:58:45;94624.81;;;19.79;67.11
6136;BME280;24008;42.664;23.372;2023-05-29T06:01:13;94619.19;;;19.49;67.94
6136;BME280;24008;42.664;23.372;2023-05-29T06:03:41;94618.75;;;19.19;69.61
6136;BME280;24008;42.664;23.372;2023-05-29T06:06:08;94617.47;;;18.95;70.80
6136;BME280;24008;42.664;23.372;2023-05-29T06:08:35;94628.19;;;18.86;72.18
6136;BME280;24008;42.664;23.372;2023-05-29T06:11:03;94620.16;;;18.74;74.18
6136;BME280;24008;42.664;23.372;2023-05-29T06:13:30;94617.94;;;19.25;74.25
6136;BME280;24008;42.664;23.372;2023-05-29T06:15:56;94592.06;;;20.04;70.53
6136;BME280;24008;42.664;23.372;2023-05-29T06:18:23;94600.03;;;20.16;67.25
6136;BME280;24008;42.664;23.372;2023-05-29T06:20:52;94613.75;;;20.30;66.57
6136;BME280;24008;42.664;23.372;2023-05-29T06:23:19;94626.72;;;20.56;66.51
6136;BME280;24008;42.664;23.372;2023-05-29T06:25:46;94584.16;;;21.02;66.06
6136;BME280;24008;42.664;23.372;2023-05-29T06:28:13;94629.34;;;22.63;61.41
6136;BME280;24008;42.664;23.372;2023-05-29T06:30:40;94628.59;;;23.70;57.87
6136;BME280;24008;42.664;23.372;2023-05-29T06:33:06;94616.22;;;24.83;54.61
6136;BME280;24008;42.664;23.372;2023-05-29T06:35:33;94612.56;;;25.52;51.65
6136;BME280;24008;42.664;23.372;2023-05-29T06:38:02;94582.44;;;24.93;50.98
6136;BME280;24008;42.664;23.372;2023-05-29T06:40:29;94589.72;;;24.27;51.59
6136;BME280;24008;42.664;23.372;2023-05-29T06:42:55;94626.50;;;24.61;51.65
6136;BME280;24008;42.664;23.372;2023-05-29T06:45:22;94629.69;;;24.63;50.23
6136;BME280;24008;42.664;23.372;2023-05-29T06:47:49;94635.56;;;24.00;51.39
6136;BME280;24008;42.664;23.372;2023-05-29T06:50:24;94621.75;;;24.34;51.20
6136;BME280;24008;42.664;23.372;2023-05-29T06:52:51;94619.56;;;24.55;50.26
6136;BME280;24008;42.664;23.372;2023-05-29T06:55:19;94610.56;;;24.04;51.72
6136;BME280;24008;42.664;23.372;2023-05-29T06:57:46;94618.75;;;24.54;52.14
6136;BME280;24008;42.664;23.372;2023-05-29T07:00:14;94630.41;;;24.98;50.07
6136;BME280;24008;42.664;23.372;2023-05-29T07:02:41;94623.28;;;25.22;49.06
6136;BME280;24008;42.664;23.372;2023-05-29T07:05:08;94627.53;;;25.11;47.98
6136;BME280;24008;42.664;23.372;2023-05-29T07:07:35;94625.69;;;23.90;51.35
6136;BME280;24008;42.664;23.372;2023-05-29T07:10:02;94610.44;;;23.34;54.23
6136;BME280;24008;42.664;23.372;2023-05-29T07:12:30;94602.81;;;23.62;54.11
6136;BME280;24008;42.664;23.372;2023-05-29T07:14:56;94627.13;;;23.75;53.79
6136;BME280;24008;42.664;23.372;2023-05-29T07:17:23;94632.28;;;24.39;53.48
6136;BME280;24008;42.664;23.372;2023-05-29T07:19:50;94615.31;;;25.45;51.30
6136;BME280;24008;42.664;23.372;2023-05-29T07:22:16;94601.16;;;26.42;46.97
6136;BME280;24008;42.664;23.372;2023-05-29T07:24:43;94630.31;;;27.33;45.57
6136;BME280;24008;42.664;23.372;2023-05-29T07:27:10;94633.09;;;26.99;43.91
6136;BME280;24008;42.664;23.372;2023-05-29T07:29:38;94611.50;;;25.98;44.75
6136;BME280;24008;42.664;23.372;2023-05-29T07:32:05;94630.09;;;25.23;46.30
6136;BME280;24008;42.664;23.372;2023-05-29T07:34:31;94631.63;;;24.44;49.22
6136;BME280;24008;42.664;23.372;2023-05-29T07:37:00;94605.69;;;23.73;50.79
6136;BME280;24008;42.664;23.372;2023-05-29T07:39:28;94606.63;;;23.48;51.96
6136;BME280;24008;42.664;23.372;2023-05-29T07:41:55;94606.63;;;23.48;53.00
6136;BME280;24008;42.664;23.372;2023-05-29T07:44:22;94633.47;;;23.37;51.17
6136;BME280;24008;42.664;23.372;2023-05-29T07:46:50;94627.06;;;24.39;48.94
6136;BME280;24008;42.664;23.372;2023-05-29T07:49:17;94632.50;;;25.13;47.79
6136;BME280;24008;42.664;23.372;2023-05-29T07:51:44;94624.44;;;25.15;47.64
6136;BME280;24008;42.664;23.372;2023-05-29T07:54:11;94588.47;;;24.82;47.85
6136;BME280;24008;42.664;23.372;2023-05-29T07:56:38;94616.75;;;25.81;46.78
6136;BME280;24008;42.664;23.372;2023-05-29T07:59:06;94626.00;;;26.56;47.31
6136;BME280;24008;42.664;23.372;2023-05-29T08:01:34;94615.53;;;27.48;45.69
6136;BME280;24008;42.664;23.372;2023-05-29T08:04:02;94627.66;;;27.81;42.05
6136;BME280;24008;42.664;23.372;2023-05-29T08:06:29;94615.28;;;26.79;44.36
6136;BME280;24008;42.664;23.372;2023-05-29T08:08:57;94594.69;;;25.77;46.32
6136;BME280;24008;42.664;23.372;2023-05-29T08:11:24;94636.34;;;24.70;48.81
6136;BME280;24008;42.664;23.372;2023-05-29T08:13:51;94634.53;;;23.78;51.25
6136;BME280;24008;42.664;23.372;2023-05-29T08:16:18;94587.19;;;23.44;53.09
6136;BME280;24008;42.664;23.372;2023-05-29T08:18:45;94616.13;;;23.43;53.15
6136;BME280;24008;42.664;23.372;2023-05-29T08:21:13;94627.69;;;23.47;54.22
6136;BME280;24008;42.664;23.372;2023-05-29T08:23:40;94555.72;;;22.86;54.80
6136;BME280;24008;42.664;23.372;2023-05-29T08:26:06;94602.53;;;24.05;52.36
6136;BME280;24008;42.664;23.372;2023-05-29T08:28:33;94629.16;;;24.77;49.91
6136;BME280;24008;42.664;23.372;2023-05-29T08:31:00;94606.72;;;24.41;52.10
6136;BME280;24008;42.664;23.372;2023-05-29T08:33:27;94616.81;;;24.03;49.85
6136;BME280;24008;42.664;23.372;2023-05-29T08:35:54;94622.75;;;23.57;51.58
6136;BME280;24008;42.664;23.372;2023-05-29T08:38:22;94634.28;;;23.49;52.09
6136;BME280;24008;42.664;23.372;2023-05-29T08:40:51;94572.28;;;22.73;51.59
6136;BME280;24008;42.664;23.372;2023-05-29T08:43:21;94628.00;;;23.09;52.54
6136;BME280;24008;42.664;23.372;2023-05-29T08:45:52;94625.97;;;23.29;54.42
6136;BME280;24008;42.664;23.372;2023-05-29T08:48:22;94603.00;;;23.49;53.39
6136;BME280;24008;42.664;23.372;2023-05-29T08:50:52;94617.16;;;24.18;52.98
6136;BME280;24008;42.664;23.372;2023-05-29T08:53:19;94609.91;;;25.07;51.40
6136;BME280;24008;42.664;23.372;2023-05-29T08:55:48;94612.34;;;25.25;48.77
6136;BME280;24008;42.664;23.372;2023-05-29T08:58:18;94609.88;;;24.67;48.71
6136;BME280;24008;42.664;23.372;2023-05-29T09:00:46;94575.28;;;23.78;50.13
6136;BME280;24008;42.664;23.372;2023-05-29T09:03:13;94603.22;;;24.36;51.27
6136;BME280;24008;42.664;23.372;2023-05-29T09:05:41;94569.44;;;25.26;46.36
6136;BME280;24008;42.664;23.372;2023-05-29T09:08:10;94602.91;;;26.36;42.02
6136;BME280;24008;42.664;23.372;2023-05-29T09:10:38;94601.06;;;26.97;40.96
6136;BME280;24008;42.664;23.372;2023-05-29T09:13:06;94603.84;;;27.61;38.72
6136;BME280;24008;42.664;23.372;2023-05-29T09:15:34;94596.84;;;27.45;39.51
6136;BME280;24008;42.664;23.372;2023-05-29T09:18:01;94596.59;;;27.73;39.97
6136;BME280;24008;42.664;23.372;2023-05-29T09:20:28;94589.19;;;28.02;41.09
6136;BME280;24008;42.664;23.372;2023-05-29T09:22:56;94584.47;;;27.99;41.52
6136;BME280;24008;42.664;23.372;2023-05-29T09:25:24;94576.38;;;27.74;42.23
6136;BME280;24008;42.664;23.372;2023-05-29T09:27:54;94568.47;;;27.69;39.01
6136;BME280;24008;42.664;23.372;2023-05-29T09:30:34;94490.91;;;26.97;38.90
6136;BME280;24008;42.664;23.372;2023-05-29T09:33:01;94576.63;;;27.18;39.69
6136;BME280;24008;42.664;23.372;2023-05-29T09:35:32;94547.88;;;27.92;38.73
6136;BME280;24008;42.664;23.372;2023-05-29T09:37:59;94534.00;;;28.44;36.49
6136;BME280;24008;42.664;23.372;2023-05-29T09:40:26;94574.00;;;28.51;36.72
6136;BME280;24008;42.664;23.372;2023-05-29T09:42:55;94535.72;;;28.18;35.35
6136;BME280;24008;42.664;23.372;2023-05-29T09:45:22;94555.34;;;28.48;36.09
6136;BME280;24008;42.664;23.372;2023-05-29T09:47:52;94558.94;;;27.94;36.51
6136;BME280;24008;42.664;23.372;2023-05-29T09:50:19;94536.34;;;26.81;38.97
6136;BME280;24008;42.664;23.372;2023-05-29T09:52:46;94533.16;;;25.97;40.43
6136;BME280;24008;42.664;23.372;2023-05-29T09:55:18;94559.84;;;25.15;42.69
6136;BME280;24008;42.664;23.372;2023-05-29T09:57:47;94561.53;;;24.93;43.77
6136;BME280;24008;42.664;23.372;2023-05-29T10:00:15;94515.50;;;24.80;43.09
6136;BME280;24008;42.664;23.372;2023-05-29T10:02:41;94534.06;;;25.07;42.87
6136;BME280;24008;42.664;23.372;2023-05-29T10:05:10;94558.16;;;25.88;41.94
6136;BME280;24008;42.664;23.372;2023-05-29T10:07:43;94471.78;;;26.09;40.96
6136;BME280;24008;42.664;23.372;2023-05-29T10:10:11;94558.47;;;27.39;39.80
6136;BME280;24008;42.664;23.372;2023-05-29T10:12:44;94539.25;;;27.60;37.24
6136;BME280;24008;42.664;23.372;2023-05-29T10:15:12;94470.28;;;27.43;37.09
6136;BME280;24008;42.664;23.372;2023-05-29T10:17:49;94442.91;;;27.29;37.58
6136;BME280;24008;42.664;23.372;2023-05-29T10:20:20;94546.34;;;27.96;37.36
6136;BME280;24008;42.664;23.372;2023-05-29T10:22:49;94560.66;;;27.20;38.41
6136;BME280;24008;42.664;23.372;2023-05-29T10:25:18;94552.19;;;26.47;40.84
6136;BME280;24008;42.664;23.372;2023-05-29T10:27:46;94545.13;;;26.92;40.67
6136;BME280;24008;42.664;23.372;2023-05-29T10:30:24;94547.25;;;26.12;41.76
6136;BME280;24008;42.664;23.372;2023-05-29T10:33:20;94505.06;;;25.08;44.04
6136;BME280;24008;42.664;23.372;2023-05-29T10:36:01;94546.16;;;24.56;43.49
6136;BME280;24008;42.664;23.372;2023-05-29T10:38:29;94518.31;;;23.75;44.95
6136;BME280;24008;42.664;23.372;2023-05-29T10:41:29;94545.50;;;23.56;46.15
6136;BME280;24008;42.664;23.372;2023-05-29T10:43:58;94539.53;;;23.25;46.34
6136;BME280;24008;42.664;23.372;2023-05-29T10:47:01;94545.56;;;22.96;47.15
6136;BME280;24008;42.664;23.372;2023-05-29T10:49:29;94543.72;;;22.48;48.12
6136;BME280;24008;42.664;23.372;2023-05-29T10:51:58;94544.19;;;22.27;48.70
6136;BME280;24008;42.664;23.372;2023-05-29T10:54:26;94518.69;;;21.92;49.30
6136;BME280;24008;42.664;23.372;2023-05-29T10:56:55;94537.72;;;22.11;49.90
6136;BME280;24008;42.664;23.372;2023-05-29T10:59:22;94512.38;;;22.07;50.28
6136;BME280;24008;42.664;23.372;2023-05-29T11:01:53;94531.78;;;22.59;48.65
6136;BME280;24008;42.664;23.372;2023-05-29T11:04:27;94489.69;;;22.92;47.54
6136;BME280;24008;42.664;23.372;2023-05-29T11:06:57;94487.88;;;23.57;46.17
6136;BME280;24008;42.664;23.372;2023-05-29T11:09:28;94517.06;;;24.24;46.03
6136;BME280;24008;42.664;23.372;2023-05-29T11:12:12;94504.28;;;24.39;44.25
6136;BME280;24008;42.664;23.372;2023-05-29T11:14:46;94509.50;;;24.39;46.30
6136;BME280;24008;42.664;23.372;2023-05-29T11:17:34;94499.97;;;24.73;45.62
6136;BME280;24008;42.664;23.372;2023-05-29T11:20:17;94471.44;;;24.44;43.77
6136;BME280;24008;42.664;23.372;2023-05-29T11:23:01;94506.09;;;24.51;43.73
6136;BME280;24008;42.664;23.372;2023-05-29T11:25:28;94503.09;;;23.84;46.77
6136;BME280;24008;42.664;23.372;2023-05-29T11:27:59;94495.47;;;23.47;50.10
6136;BME280;24008;42.664;23.372;2023-05-29T11:30:25;94493.88;;;23.46;50.85
6136;BME280;24008;42.664;23.372;2023-05-29T11:32:53;94507.91;;;23.22;52.12
6136;BME280;24008;42.664;23.372;2023-05-29T11:35:22;94310.16;;;21.89;51.40
6136;BME280;24008;42.664;23.372;2023-05-29T11:37:48;94506.25;;;22.97;52.94
6136;BME280;24008;42.664;23.372;2023-05-29T11:40:17;94457.03;;;22.30;52.29
6136;BME280;24008;42.664;23.372;2023-05-29T11:42:45;94505.13;;;22.27;50.88
6136;BME280;24008;42.664;23.372;2023-05-29T11:45:15;94508.38;;;22.22;52.46
6136;BME280;24008;42.664;23.372;2023-05-29T11:47:52;94493.59;;;21.98;51.36
6136;BME280;24008;42.664;23.372;2023-05-29T11:50:20;94510.63;;;22.01;51.96
6136;BME280;24008;42.664;23.372;2023-05-29T11:52:47;94522.41;;;21.35;56.71
6136;BME280;24008;42.664;23.372;2023-05-29T11:55:13;94490.75;;;19.47;68.79
6136;BME280;24008;42.664;23.372;2023-05-29T11:57:42;94525.59;;;18.72;77.52
6136;BME280;24008;42.664;23.372;2023-05-29T12:00:12;94526.72;;;18.15;85.73
6136;BME280;24008;42.664;23.372;2023-05-29T12:02:39;94517.53;;;17.71;91.01
6136;BME280;24008;42.664;23.372;2023-05-29T12:05:08;94444.97;;;16.89;91.14
6136;BME280;24008;42.664;23.372;2023-05-29T12:07:35;94438.81;;;16.69;92.70
6136;BME280;24008;42.664;23.372;2023-05-29T12:10:11;94514.44;;;17.33;95.46
6136;BME280;24008;42.664;23.372;2023-05-29T12:12:38;94476.41;;;17.20;94.17
6136;BME280;24008;42.664;23.372;2023-05-29T12:15:08;94522.34;;;17.53;92.03
6136;BME280;24008;42.664;23.372;2023-05-29T12:17:35;94521.78;;;17.57;89.27
6136;BME280;24008;42.664;23.372;2023-05-29T12:20:03;94525.72;;;17.75;88.72
6136;BME280;24008;42.664;23.372;2023-05-29T12:22:33;94516.94;;;17.76;88.16
6136;BME280;24008;42.664;23.372;2023-05-29T12:25:06;94524.56;;;17.84;88.45
6136;BME280;24008;42.664;23.372;2023-05-29T12:27:33;94527.72;;;17.79;85.46
6136;BME280;24008;42.664;23.372;2023-05-29T12:30:03;94538.50;;;17.89;86.29
6136;BME280;24008;42.664;23.372;2023-05-29T12:32:36;94545.81;;;17.79;81.03
6136;BME280;24008;42.664;23.372;2023-05-29T12:35:11;94538.97;;;17.44;77.88
6136;BME280;24008;42.664;23.372;2023-05-29T12:37:42;94546.41;;;17.25;81.84
6136;BME280;24008;42.664;23.372;2023-05-29T12:40:19;94468.97;;;16.47;86.40
6136;BME280;24008;42.664;23.372;2023-05-29T12:42:47;94535.75;;;16.92;90.57
6136;BME280;24008;42.664;23.372;2023-05-29T12:45:14;94536.53;;;16.93;93.88
6136;BME280;24008;42.664;23.372;2023-05-29T12:47:51;94532.19;;;16.93;100.00
6136;BME280;24008;42.664;23.372;2023-05-29T12:50:22;94501.38;;;16.71;100.00
6136;BME280;24008;42.664;23.372;2023-05-29T12:52:56;94521.44;;;16.90;100.00
6136;BME280;24008;42.664;23.372;2023-05-29T12:55:23;94492.78;;;16.85;100.00
6136;BME280;24008;42.664;23.372;2023-05-29T12:57:50;94531.13;;;17.09;100.00
6136;BME280;24008;42.664;23.372;2023-05-29T13:00:17;94491.94;;;16.99;100.00
6136;BME280;24008;42.664;23.372;2023-05-29T13:02:47;94522.63;;;17.37;100.00